sensor_id;sensor_type;location;lat;lon;timestamp;pressure;altitude;pressure_sealevel;temperature;humidity
6208;BME280;3137;51.550;7.060;2023-02-13T00:01:51;103357.19;;;7.82;79.39
6208;BME280;3137;51.550;7.060;2023-02-13T00:04:18;103358.97;;;7.81;79.56
6208;BME280;3137;51.550;7.060;2023-02-13T00:06:44;103355.44;;;7.81;79.07
6208;BME280;3137;51.550;7.060;2023-02-13T00:09:13;103345.78;;;7.74;79.44
6208;BME280;3137;51.550;7.060;2023-02-13T00:11:40;103350.97;;;7.83;79.55
6208;BME280;3137;51.550;7.060;2023-02-13T00:14:06;103351.13;;;7.74;80.09
6208;BME280;3137;51.550;7.060;2023-02-13T00:16:33;103343.03;;;7.78;79.55
6208;BME280;3137;51.550;7.060;2023-02-13T00:18:59;103342.28;;;7.70;79.59
6208;BME280;3137;51.550;7.060;2023-02-13T00:21:25;103340.38;;;7.78;79.49
6208;BME280;3137;51.550;7.060;2023-02-13T00:23:52;103340.44;;;7.74;79.87
6208;BME280;3137;51.550;7.060;2023-02-13T00:26:18;103333.47;;;7.66;79.80
6208;BME280;3137;51.550;7.060;2023-02-13T00:28:45;103332.63;;;7.63;80.44
6208;BME280;3137;51.550;7.060;2023-02-13T00:31:15;103328.13;;;7.66;80.33
6208;BME280;3137;51.550;7.060;2023-02-13T00:33:43;103330.72;;;7.70;79.87
6208;BME280;3137;51.550;7.060;2023-02-13T00:36:15;103338.81;;;7.65;80.08
6208;BME280;3137;51.550;7.060;2023-02-13T00:38:43;103339.66;;;7.67;80.31
6208;BME280;3137;51.550;7.060;2023-02-13T00:41:11;103336.22;;;7.62;80.39
6208;BME280;3137;51.550;7.060;2023-02-13T00:43:37;103336.06;;;7.70;80.00
6208;BME280;3137;51.550;7.060;2023-02-13T00:46:04;103345.78;;;7.74;80.15
6208;BME280;3137;51.550;7.060;2023-02-13T00:48:33;103336.88;;;7.73;80.21
6208;BME280;3137;51.550;7.060;2023-02-13T00:51:00;103341.31;;;7.74;80.06
6208;BME280;3137;51.550;7.060;2023-02-13T00:53:29;103336.00;;;7.74;80.24
6208;BME280;3137;51.550;7.060;2023-02-13T00:55:56;103343.06;;;7.77;80.47
6208;BME280;3137;51.550;7.060;2023-02-13T00:58:22;103333.47;;;7.66;80.26
6208;BME280;3137;51.550;7.060;2023-02-13T01:00:51;103333.41;;;7.68;80.68
6208;BME280;3137;51.550;7.060;2023-02-13T01:03:18;103328.94;;;7.72;80.25
6208;BME280;3137;51.550;7.060;2023-02-13T01:05:45;103338.69;;;7.73;80.32
6208;BME280;3137;51.550;7.060;2023-02-13T01:08:12;103340.44;;;7.74;80.23
6208;BME280;3137;51.550;7.060;2023-02-13T01:10:40;103331.59;;;7.72;80.52
6208;BME280;3137;51.550;7.060;2023-02-13T01:13:07;103331.66;;;7.69;79.92
6208;BME280;3137;51.550;7.060;2023-02-13T01:15:34;103337.72;;;7.77;80.62
6208;BME280;3137;51.550;7.060;2023-02-13T01:18:01;103331.59;;;7.72;79.97
6208;BME280;3137;51.550;7.060;2023-02-13T01:20:28;103334.22;;;7.73;80.44
6208;BME280;3137;51.550;7.060;2023-02-13T01:22:56;103333.31;;;7.74;80.43
6208;BME280;3137;51.550;7.060;2023-02-13T01:25:23;103328.00;;;7.74;80.16
6208;BME280;3137;51.550;7.060;2023-02-13T01:27:50;103324.41;;;7.75;80.15
6208;BME280;3137;51.550;7.060;2023-02-13T01:30:18;103329.78;;;7.74;79.98
6208;BME280;3137;51.550;7.060;2023-02-13T01:32:45;103329.84;;;7.69;80.70
6208;BME280;3137;51.550;7.060;2023-02-13T01:35:13;103328.94;;;7.70;79.82
6208;BME280;3137;51.550;7.060;2023-02-13T01:37:40;103329.78;;;7.72;80.47
6208;BME280;3137;51.550;7.060;2023-02-13T01:40:10;103335.13;;;7.72;80.25
6208;BME280;3137;51.550;7.060;2023-02-13T01:42:37;103331.59;;;7.72;79.80
6208;BME280;3137;51.550;7.060;2023-02-13T01:45:19;103327.16;;;7.71;80.08
6208;BME280;3137;51.550;7.060;2023-02-13T01:48:04;103327.03;;;7.78;79.95
6208;BME280;3137;51.550;7.060;2023-02-13T01:50:36;103318.13;;;7.78;79.58
6208;BME280;3137;51.550;7.060;2023-02-13T01:53:27;103315.53;;;7.73;79.73
6208;BME280;3137;51.550;7.060;2023-02-13T01:56:40;103319.97;;;7.76;79.33
6208;BME280;3137;51.550;7.060;2023-02-13T01:58:49;103315.53;;;7.75;79.47
6208;BME280;3137;51.550;7.060;2023-02-13T02:01:16;103311.03;;;7.77;79.55
6208;BME280;3137;51.550;7.060;2023-02-13T02:03:45;103318.19;;;7.76;79.13
6208;BME280;3137;51.550;7.060;2023-02-13T02:06:20;103308.31;;;7.80;79.66
6208;BME280;3137;51.550;7.060;2023-02-13T02:08:50;103305.69;;;7.78;79.45
6208;BME280;3137;51.550;7.060;2023-02-13T02:11:26;103302.19;;;7.75;79.18
6208;BME280;3137;51.550;7.060;2023-02-13T02:13:56;103307.53;;;7.75;79.49
6208;BME280;3137;51.550;7.060;2023-02-13T02:16:32;103304.84;;;7.75;79.63
6208;BME280;3137;51.550;7.060;2023-02-13T02:19:01;103299.50;;;7.75;79.33
6208;BME280;3137;51.550;7.060;2023-02-13T02:21:43;103297.78;;;7.72;79.14
6208;BME280;3137;51.550;7.060;2023-02-13T02:24:44;103295.06;;;7.75;78.99
6208;BME280;3137;51.550;7.060;2023-02-13T02:30:40;103302.19;;;7.73;79.12
6208;BME280;3137;51.550;7.060;2023-02-13T02:41:23;103294.25;;;7.72;79.46
6208;BME280;3137;51.550;7.060;2023-02-13T02:44:35;103304.06;;;7.70;78.83
6208;BME280;3137;51.550;7.060;2023-02-13T02:47:26;103299.50;;;7.76;78.71
6208;BME280;3137;51.550;7.060;2023-02-13T02:50:27;103294.19;;;7.73;78.73
6208;BME280;3137;51.550;7.060;2023-02-13T02:53:32;103292.38;;;7.75;78.91
6208;BME280;3137;51.550;7.060;2023-02-13T02:56:11;103299.66;;;7.69;79.15
6208;BME280;3137;51.550;7.060;2023-02-13T02:58:51;103302.25;;;7.70;78.94
6208;BME280;3137;51.550;7.060;2023-02-13T03:01:38;103295.13;;;7.71;78.89
6208;BME280;3137;51.550;7.060;2023-02-13T03:04:31;103292.59;;;7.64;79.04
6208;BME280;3137;51.550;7.060;2023-02-13T03:07:18;103301.50;;;7.63;78.73
6208;BME280;3137;51.550;7.060;2023-02-13T03:09:47;103296.97;;;7.69;78.62
6208;BME280;3137;51.550;7.060;2023-02-13T03:12:40;103300.66;;;7.61;78.86
6208;BME280;3137;51.550;7.060;2023-02-13T03:15:28;103306.00;;;7.60;78.94
6208;BME280;3137;51.550;7.060;2023-02-13T03:17:56;103299.69;;;7.65;79.17
6208;BME280;3137;51.550;7.060;2023-02-13T03:20:45;103297.94;;;7.64;78.94
6208;BME280;3137;51.550;7.060;2023-02-13T03:23:58;103294.25;;;7.72;79.07
6208;BME280;3137;51.550;7.060;2023-02-13T03:26:37;103300.47;;;7.72;78.83
6208;BME280;3137;51.550;7.060;2023-02-13T03:29:27;103304.00;;;7.73;78.85
6208;BME280;3137;51.550;7.060;2023-02-13T03:34:49;103317.41;;;7.68;79.09
6208;BME280;3137;51.550;7.060;2023-02-13T03:37:38;103301.53;;;7.62;79.59
6208;BME280;3137;51.550;7.060;2023-02-13T03:40:34;103308.03;;;7.47;79.52
6208;BME280;3137;51.550;7.060;2023-02-13T03:43:14;103311.34;;;7.60;79.32
6208;BME280;3137;51.550;7.060;2023-02-13T03:45:45;103308.69;;;7.58;78.89
6208;BME280;3137;51.550;7.060;2023-02-13T03:48:26;103315.91;;;7.53;79.11
6208;BME280;3137;51.550;7.060;2023-02-13T03:51:16;103314.16;;;7.51;79.37
6208;BME280;3137;51.550;7.060;2023-02-13T03:53:49;103316.03;;;7.47;79.34
6208;BME280;3137;51.550;7.060;2023-02-13T03:56:19;103319.56;;;7.46;79.61
6208;BME280;3137;51.550;7.060;2023-02-13T03:59:07;103320.50;;;7.43;80.00
6208;BME280;3137;51.550;7.060;2023-02-13T04:01:47;103317.97;;;7.36;79.65
6208;BME280;3137;51.550;7.060;2023-02-13T04:04:44;103320.66;;;7.34;80.07
6208;BME280;3137;51.550;7.060;2023-02-13T04:07:16;103318.00;;;7.34;79.66
6208;BME280;3137;51.550;7.060;2023-02-13T04:09:58;103309.91;;;7.39;79.52
6208;BME280;3137;51.550;7.060;2023-02-13T04:12:47;103316.25;;;7.33;80.00
6208;BME280;3137;51.550;7.060;2023-02-13T04:15:19;103320.66;;;7.34;79.59
6208;BME280;3137;51.550;7.060;2023-02-13T04:18:02;103318.94;;;7.30;79.77
6208;BME280;3137;51.550;7.060;2023-02-13T04:20:31;103314.50;;;7.31;79.63
6208;BME280;3137;51.550;7.060;2023-02-13T04:23:03;103325.19;;;7.29;79.59
6208;BME280;3137;51.550;7.060;2023-02-13T04:25:31;103320.78;;;7.28;79.60
6208;BME280;3137;51.550;7.060;2023-02-13T04:27:57;103313.72;;;7.26;80.05
6208;BME280;3137;51.550;7.060;2023-02-13T04:30:24;103316.38;;;7.26;79.53
6208;BME280;3137;51.550;7.060;2023-02-13T04:32:50;103319.91;;;7.26;79.49
6208;BME280;3137;51.550;7.060;2023-02-13T04:35:18;103323.47;;;7.25;79.79
6208;BME280;3137;51.550;7.060;2023-02-13T04:37:44;103318.03;;;7.33;79.29
6208;BME280;3137;51.550;7.060;2023-02-13T04:40:11;103317.28;;;7.23;79.48
6208;BME280;3137;51.550;7.060;2023-02-13T04:42:37;103317.41;;;7.15;79.54
6208;BME280;3137;51.550;7.060;2023-02-13T04:45:04;103319.13;;;7.18;79.54
6208;BME280;3137;51.550;7.060;2023-02-13T04:47:30;103316.44;;;7.21;79.62
6208;BME280;3137;51.550;7.060;2023-02-13T04:49:56;103320.94;;;7.16;80.09
6208;BME280;3137;51.550;7.060;2023-02-13T04:52:23;103318.25;;;7.19;79.79
6208;BME280;3137;51.550;7.060;2023-02-13T04:54:49;103317.44;;;7.14;79.72
6208;BME280;3137;51.550;7.060;2023-02-13T04:57:15;103319.13;;;7.19;79.29
6208;BME280;3137;51.550;7.060;2023-02-13T04:59:42;103307.72;;;7.10;79.01
6208;BME280;3137;51.550;7.060;2023-02-13T05:02:08;103312.06;;;7.15;78.95
6208;BME280;3137;51.550;7.060;2023-02-13T05:04:35;103319.25;;;7.12;78.86
6208;BME280;3137;51.550;7.060;2023-02-13T05:07:01;103308.59;;;7.12;79.13
6208;BME280;3137;51.550;7.060;2023-02-13T05:09:28;103310.53;;;7.02;79.40
6208;BME280;3137;51.550;7.060;2023-02-13T05:11:54;103310.47;;;7.03;79.34
6208;BME280;3137;51.550;7.060;2023-02-13T05:14:21;103308.53;;;7.13;79.02
6208;BME280;3137;51.550;7.060;2023-02-13T05:16:47;103309.53;;;7.09;78.93
6208;BME280;3137;51.550;7.060;2023-02-13T05:19:15;103305.13;;;7.07;79.53
6208;BME280;3137;51.550;7.060;2023-02-13T05:21:42;103306.00;;;7.07;79.75
6208;BME280;3137;51.550;7.060;2023-02-13T05:24:26;103307.81;;;7.05;79.05
6208;BME280;3137;51.550;7.060;2023-02-13T05:26:53;103308.75;;;7.01;79.59
6208;BME280;3137;51.550;7.060;2023-02-13T05:29:19;103304.28;;;7.01;79.90
6208;BME280;3137;51.550;7.060;2023-02-13T05:31:53;103302.47;;;7.05;79.91
6208;BME280;3137;51.550;7.060;2023-02-13T05:34:21;103299.78;;;7.07;79.54
6208;BME280;3137;51.550;7.060;2023-02-13T05:36:48;103302.47;;;7.03;79.68
6208;BME280;3137;51.550;7.060;2023-02-13T05:39:15;103301.66;;;7.00;79.76
6208;BME280;3137;51.550;7.060;2023-02-13T05:41:43;103294.66;;;6.94;80.19
6208;BME280;3137;51.550;7.060;2023-02-13T05:44:10;103296.34;;;6.98;80.56
6208;BME280;3137;51.550;7.060;2023-02-13T05:46:38;103293.66;;;7.00;80.00
6208;BME280;3137;51.550;7.060;2023-02-13T05:49:06;103294.59;;;6.97;80.25
6208;BME280;3137;51.550;7.060;2023-02-13T05:51:32;103293.59;;;7.05;80.01
6208;BME280;3137;51.550;7.060;2023-02-13T05:53:59;103298.06;;;7.02;80.70
6208;BME280;3137;51.550;7.060;2023-02-13T05:56:25;103304.28;;;7.03;79.97
6208;BME280;3137;51.550;7.060;2023-02-13T05:58:55;103303.38;;;7.04;80.00
6208;BME280;3137;51.550;7.060;2023-02-13T06:01:23;103306.00;;;7.07;79.90
6208;BME280;3137;51.550;7.060;2023-02-13T06:03:50;103302.47;;;7.03;80.39
6208;BME280;3137;51.550;7.060;2023-02-13T06:06:17;103314.97;;;7.00;80.77
6208;BME280;3137;51.550;7.060;2023-02-13T06:08:43;103306.94;;;7.01;80.42
6208;BME280;3137;51.550;7.060;2023-02-13T06:11:11;103299.81;;;7.05;80.47
6208;BME280;3137;51.550;7.060;2023-02-13T06:13:37;103298.06;;;7.04;80.38
6208;BME280;3137;51.550;7.060;2023-02-13T06:16:10;103299.78;;;7.07;80.57
6208;BME280;3137;51.550;7.060;2023-02-13T06:18:37;103292.81;;;6.98;80.45
6208;BME280;3137;51.550;7.060;2023-02-13T06:21:05;103298.06;;;7.02;80.20
6208;BME280;3137;51.550;7.060;2023-02-13T06:23:32;103285.63;;;7.01;80.34
6208;BME280;3137;51.550;7.060;2023-02-13T06:26:05;103288.41;;;6.94;80.96
6208;BME280;3137;51.550;7.060;2023-02-13T06:28:33;103283.09;;;6.94;80.46
6208;BME280;3137;51.550;7.060;2023-02-13T06:31:00;103291.13;;;6.92;80.84
6208;BME280;3137;51.550;7.060;2023-02-13T06:33:27;103285.00;;;6.87;80.46
6208;BME280;3137;51.550;7.060;2023-02-13T06:35:53;103283.22;;;6.86;80.72
6208;BME280;3137;51.550;7.060;2023-02-13T06:38:20;103289.47;;;6.85;80.85
6208;BME280;3137;51.550;7.060;2023-02-13T06:40:47;103283.34;;;6.78;80.63
6208;BME280;3137;51.550;7.060;2023-02-13T06:43:14;103287.88;;;6.70;80.61
6208;BME280;3137;51.550;7.060;2023-02-13T06:45:41;103294.13;;;6.68;81.01
6208;BME280;3137;51.550;7.060;2023-02-13T06:48:08;103292.44;;;6.64;81.08
6208;BME280;3137;51.550;7.060;2023-02-13T06:50:34;103296.03;;;6.59;80.73
6208;BME280;3137;51.550;7.060;2023-02-13T06:53:01;103298.75;;;6.56;80.86
6208;BME280;3137;51.550;7.060;2023-02-13T06:55:27;103295.28;;;6.48;80.83
6208;BME280;3137;51.550;7.060;2023-02-13T06:57:54;103301.47;;;6.49;80.84
6208;BME280;3137;51.550;7.060;2023-02-13T07:00:20;103296.25;;;6.41;80.97
6208;BME280;3137;51.550;7.060;2023-02-13T07:02:47;103300.75;;;6.36;80.56
6208;BME280;3137;51.550;7.060;2023-02-13T07:05:14;103301.75;;;6.29;80.68
6208;BME280;3137;51.550;7.060;2023-02-13T07:07:41;103302.75;;;6.17;81.10
6208;BME280;3137;51.550;7.060;2023-02-13T07:10:10;103301.13;;;6.07;81.66
6208;BME280;3137;51.550;7.060;2023-02-13T07:12:37;103304.69;;;6.06;81.56
6208;BME280;3137;51.550;7.060;2023-02-13T07:15:04;103304.75;;;6.01;81.98
6208;BME280;3137;51.550;7.060;2023-02-13T07:17:31;103312.72;;;6.00;82.03
6208;BME280;3137;51.550;7.060;2023-02-13T07:19:59;103307.47;;;5.92;82.42
6208;BME280;3137;51.550;7.060;2023-02-13T07:22:25;103311.00;;;5.91;82.26
6208;BME280;3137;51.550;7.060;2023-02-13T07:24:51;103306.59;;;5.90;82.51
6208;BME280;3137;51.550;7.060;2023-02-13T07:27:18;103312.81;;;5.86;82.67
6208;BME280;3137;51.550;7.060;2023-02-13T07:29:44;103310.16;;;5.87;83.10
6208;BME280;3137;51.550;7.060;2023-02-13T07:32:10;103311.03;;;5.86;83.15
6208;BME280;3137;51.550;7.060;2023-02-13T07:34:37;103315.47;;;5.86;83.37
6208;BME280;3137;51.550;7.060;2023-02-13T07:37:07;103318.13;;;5.87;84.39
6208;BME280;3137;51.550;7.060;2023-02-13T07:39:34;103311.84;;;5.99;84.18
6208;BME280;3137;51.550;7.060;2023-02-13T07:42:04;103314.47;;;6.04;83.98
6208;BME280;3137;51.550;7.060;2023-02-13T07:44:31;103319.69;;;6.10;84.28
6208;BME280;3137;51.550;7.060;2023-02-13T07:46:58;103324.97;;;6.16;84.38
6208;BME280;3137;51.550;7.060;2023-02-13T07:49:26;103328.44;;;6.23;84.28
6208;BME280;3137;51.550;7.060;2023-02-13T07:51:55;103319.41;;;6.36;84.14
6208;BME280;3137;51.550;7.060;2023-02-13T07:54:21;103322.00;;;6.39;84.21
6208;BME280;3137;51.550;7.060;2023-02-13T07:56:47;103322.78;;;6.49;83.81
6208;BME280;3137;51.550;7.060;2023-02-13T07:59:14;103324.44;;;6.57;83.49
6208;BME280;3137;51.550;7.060;2023-02-13T08:01:40;103327.88;;;6.67;82.96
6208;BME280;3137;51.550;7.060;2023-02-13T08:04:07;103332.19;;;6.76;82.93
6208;BME280;3137;51.550;7.060;2023-02-13T08:06:33;103329.44;;;6.84;82.07
6208;BME280;3137;51.550;7.060;2023-02-13T08:09:00;103331.16;;;6.86;81.89
6208;BME280;3137;51.550;7.060;2023-02-13T08:11:45;103334.56;;;6.97;81.33
6208;BME280;3137;51.550;7.060;2023-02-13T08:14:25;103338.03;;;7.01;81.41
6208;BME280;3137;51.550;7.060;2023-02-13T08:16:52;103332.66;;;7.07;80.79
6208;BME280;3137;51.550;7.060;2023-02-13T08:19:20;103342.25;;;7.16;80.11
6208;BME280;3137;51.550;7.060;2023-02-13T08:21:46;103345.78;;;7.19;80.26
6208;BME280;3137;51.550;7.060;2023-02-13T08:24:12;103333.28;;;7.23;79.75
6208;BME280;3137;51.550;7.060;2023-02-13T08:26:39;103340.25;;;7.30;79.39
6208;BME280;3137;51.550;7.060;2023-02-13T08:29:06;103340.09;;;7.42;78.77
6208;BME280;3137;51.550;7.060;2023-02-13T08:31:32;103331.22;;;7.40;79.52
6208;BME280;3137;51.550;7.060;2023-02-13T08:33:59;103332.97;;;7.41;79.30
6208;BME280;3137;51.550;7.060;2023-02-13T08:36:26;103334.69;;;7.45;78.61
6208;BME280;3137;51.550;7.060;2023-02-13T08:38:52;103337.16;;;7.56;78.82
6208;BME280;3137;51.550;7.060;2023-02-13T08:41:18;103333.69;;;7.54;77.82
6208;BME280;3137;51.550;7.060;2023-02-13T08:43:48;103340.75;;;7.55;78.19
6208;BME280;3137;51.550;7.060;2023-02-13T08:46:15;103335.34;;;7.61;77.66
6208;BME280;3137;51.550;7.060;2023-02-13T08:48:42;103339.59;;;7.70;76.91
6208;BME280;3137;51.550;7.060;2023-02-13T08:51:10;103339.53;;;7.75;76.82
6208;BME280;3137;51.550;7.060;2023-02-13T08:53:37;103346.59;;;7.77;77.32
6208;BME280;3137;51.550;7.060;2023-02-13T08:56:04;103336.69;;;7.84;76.59
6208;BME280;3137;51.550;7.060;2023-02-13T08:58:31;103334.75;;;7.94;76.31
6208;BME280;3137;51.550;7.060;2023-02-13T09:00:58;103339.13;;;7.96;75.20
6208;BME280;3137;51.550;7.060;2023-02-13T09:03:24;103344.41;;;7.99;75.72
6208;BME280;3137;51.550;7.060;2023-02-13T09:05:51;103346.13;;;8.03;75.59
6208;BME280;3137;51.550;7.060;2023-02-13T09:08:17;103343.38;;;8.06;75.19
6208;BME280;3137;51.550;7.060;2023-02-13T09:10:44;103342.25;;;8.21;74.44
6208;BME280;3137;51.550;7.060;2023-02-13T09:13:11;103332.09;;;8.39;74.42
6208;BME280;3137;51.550;7.060;2023-02-13T09:15:38;103333.59;;;8.54;74.17
6208;BME280;3137;51.550;7.060;2023-02-13T09:18:08;103335.09;;;8.67;73.63
6208;BME280;3137;51.550;7.060;2023-02-13T09:20:34;103334.81;;;8.79;72.85
6208;BME280;3137;51.550;7.060;2023-02-13T09:23:02;103327.75;;;8.77;72.18
6208;BME280;3137;51.550;7.060;2023-02-13T09:25:30;103324.75;;;8.90;71.92
6208;BME280;3137;51.550;7.060;2023-02-13T09:27:58;103332.53;;;9.03;71.88
6208;BME280;3137;51.550;7.060;2023-02-13T09:30:24;103334.78;;;9.20;72.25
6208;BME280;3137;51.550;7.060;2023-02-13T09:32:52;103339.72;;;9.36;70.63
6208;BME280;3137;51.550;7.060;2023-02-13T09:35:19;103327.84;;;9.48;69.97
6208;BME280;3137;51.550;7.060;2023-02-13T09:37:46;103327.59;;;9.57;69.26
6208;BME280;3137;51.550;7.060;2023-02-13T09:42:48;103334.59;;;9.63;69.30
6208;BME280;3137;51.550;7.060;2023-02-13T09:45:16;103336.19;;;9.70;68.79
6208;BME280;3137;51.550;7.060;2023-02-13T09:47:46;103336.78;;;9.82;69.56
6208;BME280;3137;51.550;7.060;2023-02-13T09:50:22;103331.16;;;9.92;69.37
6208;BME280;3137;51.550;7.060;2023-02-13T09:52:52;103337.56;;;9.87;67.85
6208;BME280;3137;51.550;7.060;2023-02-13T09:55:26;103342.00;;;9.86;69.03
6208;BME280;3137;51.550;7.060;2023-02-13T09:58:05;103335.50;;;9.96;68.80
6208;BME280;3137;51.550;7.060;2023-02-13T10:00:38;103348.91;;;9.96;67.85
6208;BME280;3137;51.550;7.060;2023-02-13T10:03:20;103351.16;;;10.12;67.65
6208;BME280;3137;51.550;7.060;2023-02-13T10:08:45;103342.13;;;10.16;67.36
6208;BME280;3137;51.550;7.060;2023-02-13T10:13:57;103342.06;;;10.50;67.25
6208;BME280;3137;51.550;7.060;2023-02-13T10:16:59;103344.50;;;10.58;65.75
6208;BME280;3137;51.550;7.060;2023-02-13T10:19:32;103336.69;;;10.50;66.14
6208;BME280;3137;51.550;7.060;2023-02-13T10:22:07;103336.75;;;10.49;65.28
6208;BME280;3137;51.550;7.060;2023-02-13T10:27:31;103335.53;;;10.89;66.08
6208;BME280;3137;51.550;7.060;2023-02-13T10:30:06;103337.53;;;11.10;64.98
6208;BME280;3137;51.550;7.060;2023-02-13T10:32:49;103343.34;;;11.24;63.03
6208;BME280;3137;51.550;7.060;2023-02-13T10:35:26;103333.28;;;11.31;64.30
6208;BME280;3137;51.550;7.060;2023-02-13T10:37:57;103331.59;;;11.28;61.97
6208;BME280;3137;51.550;7.060;2023-02-13T10:40:31;103326.38;;;11.24;62.52
6208;BME280;3137;51.550;7.060;2023-02-13T10:43:08;103332.50;;;11.27;62.46
6208;BME280;3137;51.550;7.060;2023-02-13T10:51:26;103329.25;;;11.44;60.34
6208;BME280;3137;51.550;7.060;2023-02-13T10:54:39;103321.88;;;11.51;62.02
6208;BME280;3137;51.550;7.060;2023-02-13T10:57:15;103322.81;;;11.50;61.49
6208;BME280;3137;51.550;7.060;2023-02-13T11:02:33;103305.84;;;11.49;60.89
6208;BME280;3137;51.550;7.060;2023-02-13T11:05:11;103312.13;;;11.48;61.46
6208;BME280;3137;51.550;7.060;2023-02-13T11:07:39;103308.88;;;11.39;61.07
6208;BME280;3137;51.550;7.060;2023-02-13T11:10:23;103305.94;;;11.46;60.82
6208;BME280;3137;51.550;7.060;2023-02-13T11:12:51;103299.75;;;11.71;60.99
6208;BME280;3137;51.550;7.060;2023-02-13T11:15:28;103296.31;;;11.93;60.58
6208;BME280;3137;51.550;7.060;2023-02-13T11:18:12;103292.38;;;12.03;58.57
6208;BME280;3137;51.550;7.060;2023-02-13T11:20:44;103288.44;;;11.88;58.52
6208;BME280;3137;51.550;7.060;2023-02-13T11:23:17;103280.78;;;11.76;59.29
6208;BME280;3137;51.550;7.060;2023-02-13T11:26:00;103280.09;;;11.96;59.79
6208;BME280;3137;51.550;7.060;2023-02-13T11:28:30;103280.63;;;12.05;58.22
6208;BME280;3137;51.550;7.060;2023-02-13T11:31:22;103277.66;;;12.37;59.15
6208;BME280;3137;51.550;7.060;2023-02-13T11:33:50;103270.59;;;12.58;56.70
6208;BME280;3137;51.550;7.060;2023-02-13T11:36:36;103270.31;;;12.64;56.00
6208;BME280;3137;51.550;7.060;2023-02-13T11:39:05;103264.13;;;12.62;55.75
6208;BME280;3137;51.550;7.060;2023-02-13T11:41:44;103268.31;;;12.23;57.79
6208;BME280;3137;51.550;7.060;2023-02-13T11:44:24;103272.75;;;12.48;56.74
6208;BME280;3137;51.550;7.060;2023-02-13T11:46:54;103264.53;;;12.52;56.49
6208;BME280;3137;51.550;7.060;2023-02-13T11:49:29;103259.38;;;12.46;57.14
6208;BME280;3137;51.550;7.060;2023-02-13T11:52:25;103266.25;;;12.53;56.95
6208;BME280;3137;51.550;7.060;2023-02-13T11:54:57;103264.41;;;12.77;56.92
6208;BME280;3137;51.550;7.060;2023-02-13T11:57:34;103258.22;;;12.75;55.06
6208;BME280;3137;51.550;7.060;2023-02-13T12:03:27;103261.22;;;13.34;56.63
6208;BME280;3137;51.550;7.060;2023-02-13T12:06:12;103247.44;;;13.42;53.69
6208;BME280;3137;51.550;7.060;2023-02-13T12:08:41;103241.19;;;13.41;53.97
6208;BME280;3137;51.550;7.060;2023-02-13T12:11:20;103249.50;;;13.35;53.63
6208;BME280;3137;51.550;7.060;2023-02-13T12:13:47;103249.44;;;12.92;54.91
6208;BME280;3137;51.550;7.060;2023-02-13T12:16:33;103238.81;;;13.11;54.80
6208;BME280;3137;51.550;7.060;2023-02-13T12:19:05;103244.88;;;13.16;54.51
6208;BME280;3137;51.550;7.060;2023-02-13T12:21:44;103243.50;;;13.06;54.26
6208;BME280;3137;51.550;7.060;2023-02-13T12:24:29;103232.09;;;13.22;54.59
6208;BME280;3137;51.550;7.060;2023-02-13T12:27:18;103239.63;;;13.13;54.20
6208;BME280;3137;51.550;7.060;2023-02-13T12:32:47;103221.53;;;13.39;53.73
6208;BME280;3137;51.550;7.060;2023-02-13T12:35:48;103213.25;;;13.44;53.40
6208;BME280;3137;51.550;7.060;2023-02-13T12:38:53;103206.09;;;13.43;53.39
6208;BME280;3137;51.550;7.060;2023-02-13T12:41:30;103211.75;;;13.57;53.62
6208;BME280;3137;51.550;7.060;2023-02-13T12:47:20;103198.66;;;13.89;52.58
6208;BME280;3137;51.550;7.060;2023-02-13T12:50:03;103193.69;;;13.79;52.67
6208;BME280;3137;51.550;7.060;2023-02-13T12:55:18;103185.34;;;14.04;52.13
6208;BME280;3137;51.550;7.060;2023-02-13T12:58:04;103180.69;;;13.89;52.76
6208;BME280;3137;51.550;7.060;2023-02-13T13:00:55;103183.38;;;14.08;52.99
6208;BME280;3137;51.550;7.060;2023-02-13T13:03:45;103183.88;;;14.16;51.99
6208;BME280;3137;51.550;7.060;2023-02-13T13:06:26;103181.41;;;14.12;51.89
6208;BME280;3137;51.550;7.060;2023-02-13T13:20:19;103171.38;;;13.96;52.11
6208;BME280;3137;51.550;7.060;2023-02-13T13:22:52;103169.31;;;14.01;51.33
6208;BME280;3137;51.550;7.060;2023-02-13T13:25:41;103163.03;;;13.82;52.02
6208;BME280;3137;51.550;7.060;2023-02-13T13:28:27;103170.81;;;13.88;52.30
6208;BME280;3137;51.550;7.060;2023-02-13T13:30:56;103165.75;;;14.01;52.16
6208;BME280;3137;51.550;7.060;2023-02-13T13:33:25;103166.75;;;14.17;51.72
6208;BME280;3137;51.550;7.060;2023-02-13T13:36:04;103155.84;;;14.39;50.47
6208;BME280;3137;51.550;7.060;2023-02-13T13:38:47;103154.88;;;14.59;51.62
6208;BME280;3137;51.550;7.060;2023-02-13T13:41:29;103148.78;;;14.56;50.60
6208;BME280;3137;51.550;7.060;2023-02-13T13:44:36;103151.88;;;14.46;50.26
6208;BME280;3137;51.550;7.060;2023-02-13T13:50:02;103147.09;;;14.34;51.25
6208;BME280;3137;51.550;7.060;2023-02-13T13:52:33;103146.41;;;14.29;50.92
6208;BME280;3137;51.550;7.060;2023-02-13T13:55:01;103147.00;;;14.36;50.69
6208;BME280;3137;51.550;7.060;2023-02-13T14:03:12;103140.81;;;14.15;51.68
6208;BME280;3137;51.550;7.060;2023-02-13T14:06:00;103130.19;;;14.12;51.33
6208;BME280;3137;51.550;7.060;2023-02-13T14:08:54;103124.09;;;14.08;51.38
6208;BME280;3137;51.550;7.060;2023-02-13T14:11:31;103121.25;;;13.92;51.44
6208;BME280;3137;51.550;7.060;2023-02-13T14:13:59;103122.25;;;13.71;52.60
6208;BME280;3137;51.550;7.060;2023-02-13T14:16:44;103124.69;;;13.77;51.82
6208;BME280;3137;51.550;7.060;2023-02-13T14:24:49;103118.69;;;13.70;52.35
6208;BME280;3137;51.550;7.060;2023-02-13T14:27:24;103110.22;;;13.59;53.01
6208;BME280;3137;51.550;7.060;2023-02-13T14:29:53;103107.13;;;13.68;52.81
6208;BME280;3137;51.550;7.060;2023-02-13T14:34:59;103118.31;;;13.59;53.30
6208;BME280;3137;51.550;7.060;2023-02-13T14:37:31;103117.44;;;13.58;52.25
6208;BME280;3137;51.550;7.060;2023-02-13T14:40:26;103108.72;;;13.53;53.16
6208;BME280;3137;51.550;7.060;2023-02-13T14:42:56;103114.31;;;13.49;52.66
6208;BME280;3137;51.550;7.060;2023-02-13T14:45:40;103101.31;;;13.38;53.39
6208;BME280;3137;51.550;7.060;2023-02-13T14:48:13;103106.28;;;13.47;52.24
6208;BME280;3137;51.550;7.060;2023-02-13T14:50:49;103095.66;;;13.44;52.48
6208;BME280;3137;51.550;7.060;2023-02-13T14:53:25;103095.13;;;13.36;52.67
6208;BME280;3137;51.550;7.060;2023-02-13T14:56:05;103095.81;;;13.41;52.50
6208;BME280;3137;51.550;7.060;2023-02-13T14:58:35;103091.22;;;13.43;53.41
6208;BME280;3137;51.550;7.060;2023-02-13T15:01:05;103102.22;;;13.38;53.98
6208;BME280;3137;51.550;7.060;2023-02-13T15:06:03;103101.66;;;13.30;54.66
6208;BME280;3137;51.550;7.060;2023-02-13T15:08:34;103102.69;;;13.28;54.70